Time;durP1;ratioP1;P1;durP2;ratioP2;P2;SDS_P1;SDS_P2;PMS_P1;PMS_P2;Temp;Humidity;BMP_temperature;BMP_pressure;BME280_temperature;BME280_humidity;BME280_pressure;Samples;Min_cycle;Max_cycle;Signal;HPM_P1;HPM_P2
2022/08/06 00:02:59;;;;;;;1.45;1.00;;;30.60;51.90;;;;;;10867475;32;20007;-70
2022/08/06 00:09:02;;;;;;;3.92;1.35;;;30.50;51.90;;;;;;10867183;32;20023;-69
2022/08/06 00:15:06;;;;;;;2.60;1.73;;;30.40;52.00;;;;;;10866763;32;20019;-69
2022/08/06 00:21:08;;;;;;;2.20;1.27;;;30.30;52.20;;;;;;10867001;32;20316;-69
2022/08/06 00:27:10;;;;;;;2.17;1.52;;;30.40;52.20;;;;;;10866886;32;20045;-69
2022/08/06 00:33:12;;;;;;;2.87;1.67;;;30.30;52.20;;;;;;10865347;32;20047;-69
2022/08/06 00:39:14;;;;;;;1.83;1.40;;;30.30;52.30;;;;;;10864999;32;20035;-70
2022/08/06 00:45:16;;;;;;;1.92;1.42;;;30.10;52.50;;;;;;10869819;32;20023;-69
2022/08/06 00:51:19;;;;;;;2.62;1.62;;;30.20;52.60;;;;;;10871373;32;20024;-69
2022/08/06 00:57:21;;;;;;;2.87;1.48;;;30.30;52.70;;;;;;10871254;32;20027;-69
2022/08/06 01:03:24;;;;;;;4.95;1.80;;;30.20;53.30;;;;;;10871113;32;20020;-69
2022/08/06 01:09:49;;;;;;;2.92;1.70;;;30.20;53.30;;;;;;10870935;32;20494;-70
2022/08/06 01:16:15;;;;;;;2.78;2.00;;;29.90;53.50;;;;;;10870782;32;20015;-69
2022/08/06 01:22:59;;;;;;;2.60;1.50;;;30.00;53.50;;;;;;10870428;32;20036;-69
2022/08/06 01:29:27;;;;;;;1.93;1.33;;;30.00;53.80;;;;;;10489879;32;11957127;-70
2022/08/06 01:35:34;;;;;;;2.83;1.33;;;29.90;54.10;;;;;;10795327;33;20051;-69
2022/08/06 01:41:43;;;;;;;2.00;1.52;;;29.70;54.20;;;;;;10795128;33;20024;-69
2022/08/06 01:47:51;;;;;;;2.45;1.83;;;29.70;54.20;;;;;;10794596;33;20051;-69
2022/08/06 01:53:53;;;;;;;;;;;29.70;54.20;;;;;;10801648;32;20089;-69
2022/08/06 01:59:56;;;;;;;2.75;1.65;;;29.80;54.20;;;;;;10872233;32;19931;-69
2022/08/06 02:06:01;;;;;;;3.20;1.62;;;29.80;54.10;;;;;;10871319;32;20024;-70
2022/08/06 02:12:10;;;;;;;2.85;1.90;;;29.70;54.10;;;;;;10871027;32;20059;-70
2022/08/06 02:18:14;;;;;;;2.58;1.75;;;29.60;54.10;;;;;;10870943;32;20054;-69
2022/08/06 02:24:28;;;;;;;4.10;1.67;;;29.50;54.40;;;;;;10867390;32;20392;-69
2022/08/06 02:30:40;;;;;;;4.22;1.40;;;29.30;54.40;;;;;;10869455;32;20050;-69
2022/08/06 02:36:48;;;;;;;2.08;1.37;;;29.40;54.60;;;;;;10870199;32;20054;-69
2022/08/06 02:43:12;;;;;;;3.45;1.73;;;29.50;54.50;;;;;;10869853;32;20435;-69
2022/08/06 02:49:21;;;;;;;3.60;1.98;;;29.60;54.40;;;;;;10869833;32;20020;-69
2022/08/06 02:55:28;;;;;;;2.75;1.60;;;29.40;54.40;;;;;;10869494;32;20023;-69
2022/08/06 03:01:37;;;;;;;1.50;1.20;;;29.40;54.60;;;;;;10869252;32;20042;-69
2022/08/06 03:07:40;;;;;;;3.42;1.95;;;29.30;54.80;;;;;;10868453;32;20142;-69
2022/08/06 03:13:44;;;;;;;2.42;1.83;;;29.30;54.80;;;;;;10868801;32;20023;-69
2022/08/06 03:19:51;;;;;;;2.70;1.80;;;29.30;55.00;;;;;;10864982;32;20324;-69
2022/08/06 03:25:54;;;;;;;;;;;29.20;55.20;;;;;;10864588;32;20332;-69
2022/08/06 03:31:56;;;;;;;2.10;1.60;;;29.30;55.10;;;;;;10868329;32;19918;-69
2022/08/06 03:37:58;;;;;;;2.67;2.03;;;29.10;55.20;;;;;;10867966;32;20332;-69
2022/08/06 03:44:02;;;;;;;1.80;1.27;;;29.10;55.50;;;;;;10867770;32;20020;-69
2022/08/06 03:50:18;;;;;;;1.83;1.60;;;28.90;55.50;;;;;;10867806;32;20404;-70
2022/08/06 03:56:23;;;;;;;3.15;1.95;;;28.80;55.50;;;;;;10867410;32;20040;-70
2022/08/06 04:02:29;;;;;;;2.53;1.70;;;28.70;55.70;;;;;;10866527;32;20023;-70
2022/08/06 04:08:33;;;;;;;2.25;1.55;;;28.80;55.70;;;;;;10866360;32;20039;-70
2022/08/06 04:14:36;;;;;;;2.78;1.83;;;28.80;55.50;;;;;;10867218;32;20043;-69
2022/08/06 04:20:41;;;;;;;3.90;2.10;;;28.70;55.60;;;;;;10866332;32;20347;-69
2022/08/06 04:26:51;;;;;;;2.08;1.37;;;28.80;55.70;;;;;;10866871;32;20399;-69
2022/08/06 04:32:54;;;;;;;3.12;2.10;;;28.80;55.60;;;;;;10868472;27;20086;-69
2022/08/06 04:38:57;;;;;;;1.90;1.58;;;28.80;55.70;;;;;;10866712;32;20034;-69
2022/08/06 04:45:00;;;;;;;2.22;1.60;;;28.80;55.70;;;;;;10866667;32;20015;-69
2022/08/06 04:51:04;;;;;;;2.20;1.60;;;28.80;55.70;;;;;;10853341;32;20023;-69
2022/08/06 04:57:06;;;;;;;2.03;1.70;;;28.80;55.60;;;;;;10866307;32;20098;-70
2022/08/06 05:03:08;;;;;;;4.05;2.28;;;28.80;55.60;;;;;;10866270;32;20352;-70
2022/08/06 05:09:25;;;;;;;3.33;2.10;;;28.80;55.60;;;;;;10865702;32;20019;-70
2022/08/06 05:15:41;;;;;;;2.62;1.65;;;28.80;55.50;;;;;;10852960;32;20393;-70
2022/08/06 05:21:47;;;;;;;2.58;1.70;;;28.80;55.50;;;;;;10865039;32;20055;-71
2022/08/06 05:27:49;;;;;;;2.67;2.10;;;28.90;55.30;;;;;;10862734;32;20023;-71
2022/08/06 05:33:52;;;;;;;1.75;1.35;;;28.90;55.20;;;;;;10872398;32;20031;-70
2022/08/06 05:39:54;;;;;;;1.27;1.12;;;29.00;55.10;;;;;;10872119;32;20066;-70
2022/08/06 05:46:00;;;;;;;1.67;1.00;;;29.00;54.90;;;;;;10872024;32;20392;-71
2022/08/06 05:52:19;;;;;;;2.03;1.45;;;29.10;54.80;;;;;;10871789;32;20082;-70
2022/08/06 05:58:33;;;;;;;1.27;1.00;;;29.30;54.60;;;;;;10871435;32;20050;-70
2022/08/06 06:04:36;;;;;;;1.98;1.55;;;29.40;54.40;;;;;;10871346;32;20027;-71
2022/08/06 06:10:41;;;;;;;1.90;1.10;;;29.60;54.20;;;;;;10871115;32;20024;-71
2022/08/06 06:17:18;;;;;;;1.70;1.12;;;29.80;54.00;;;;;;10871028;32;20020;-68
2022/08/06 06:23:42;;;;;;;2.17;0.75;;;29.90;53.80;;;;;;10870670;32;20027;-68
2022/08/06 06:30:04;;;;;;;1.55;1.10;;;30.10;53.90;;;;;;10866371;32;20340;-68
2022/08/06 06:36:19;;;;;;;2.90;1.48;;;30.30;53.70;;;;;;10869326;32;20376;-70
2022/08/06 06:42:34;;;;;;;3.17;1.83;;;30.40;53.50;;;;;;10869391;32;20024;-70
2022/08/06 06:48:49;;;;;;;0.75;0.57;;;30.60;53.10;;;;;;10865849;32;20055;-70
2022/08/06 06:54:57;;;;;;;6.22;1.15;;;30.70;53.00;;;;;;10869612;32;20031;-70
2022/08/06 07:01:03;;;;;;;1.73;0.80;;;30.80;52.80;;;;;;10869256;32;20015;-69
2022/08/06 07:07:05;;;;;;;2.87;1.73;;;30.80;52.60;;;;;;10865042;32;20019;-71
2022/08/06 07:13:09;;;;;;;1.67;1.37;;;30.90;52.20;;;;;;10868617;32;20393;-70
2022/08/06 07:19:12;;;;;;;1.87;1.52;;;31.10;52.10;;;;;;10868698;32;20024;-71
2022/08/06 07:25:40;;;;;;;1.80;1.17;;;31.10;51.70;;;;;;10868641;32;20047;-69
2022/08/06 07:31:42;;;;;;;2.60;1.35;;;31.30;51.60;;;;;;10868382;32;20020;-70
2022/08/06 07:37:55;;;;;;;4.37;1.35;;;31.40;51.20;;;;;;10868079;32;20058;-71
2022/08/06 07:44:01;;;;;;;3.67;1.15;;;31.50;51.00;;;;;;10869761;32;20278;-69
2022/08/06 07:50:17;;;;;;;2.15;1.37;;;31.60;50.80;;;;;;10863265;32;20043;-70
2022/08/06 07:56:20;;;;;;;1.73;1.20;;;31.80;50.50;;;;;;10867562;32;20023;-68
2022/08/06 08:02:23;;;;;;;3.47;1.75;;;31.80;50.20;;;;;;10867456;32;20024;-70
2022/08/06 08:08:25;;;;;;;3.87;2.03;;;31.90;50.00;;;;;;10867489;32;20074;-69
2022/08/06 08:14:28;;;;;;;2.10;1.20;;;32.10;49.80;;;;;;10867223;32;20336;-70
2022/08/06 08:20:33;;;;;;;1.52;1.42;;;32.30;49.40;;;;;;10866780;32;20045;-70
2022/08/06 08:26:35;;;;;;;5.35;1.15;;;32.40;49.20;;;;;;10866911;32;20051;-70
2022/08/06 08:32:37;;;;;;;4.47;1.30;;;32.60;49.00;;;;;;10866616;32;20020;-69
2022/08/06 08:39:02;;;;;;;1.20;1.10;;;32.80;48.80;;;;;;10866676;32;20028;-70
2022/08/06 08:45:05;;;;;;;4.12;1.05;;;32.90;48.00;;;;;;10864187;32;20164;-70
2022/08/06 08:51:11;;;;;;;3.65;1.52;;;33.10;47.50;;;;;;10864054;32;20024;-70
2022/08/06 08:57:16;;;;;;;2.60;1.55;;;33.30;47.00;;;;;;10865586;32;20036;-71
2022/08/06 09:03:18;;;;;;;1.70;1.02;;;33.40;46.70;;;;;;10864175;32;20328;-70
2022/08/06 09:09:21;;;;;;;3.05;1.92;;;33.60;46.10;;;;;;10871876;32;20031;-70
2022/08/06 09:15:23;;;;;;;1.77;1.27;;;33.70;45.70;;;;;;10872894;32;20058;-71
2022/08/06 09:21:33;;;;;;;1.80;1.20;;;33.60;45.60;;;;;;10859748;32;20073;-69
2022/08/06 09:27:36;;;;;;;3.15;1.35;;;33.80;45.20;;;;;;10872561;32;20024;-70
2022/08/06 09:33:41;;;;;;;1.55;1.23;;;33.90;45.20;;;;;;10872548;32;20055;-70
2022/08/06 09:39:45;;;;;;;2.05;1.20;;;34.10;44.80;;;;;;10871223;32;20100;-71
2022/08/06 09:45:47;;;;;;;6.20;1.30;;;34.30;44.80;;;;;;10871933;32;20035;-68
2022/08/06 09:51:49;;;;;;;1.60;1.02;;;34.60;44.30;;;;;;10871935;32;20024;-69
2022/08/06 09:57:51;;;;;;;6.10;1.98;;;34.70;44.10;;;;;;10871702;32;20049;-69
2022/08/06 10:04:28;;;;;;;2.00;1.40;;;34.80;43.60;;;;;;10871524;32;20027;-70
2022/08/06 10:10:52;;;;;;;1.77;1.20;;;34.90;43.00;;;;;;10871142;32;20348;-70
2022/08/06 10:17:28;;;;;;;3.42;2.00;;;35.10;42.60;;;;;;10870786;32;20054;-70
2022/08/06 10:23:37;;;;;;;2.53;1.95;;;35.30;41.60;;;;;;10870855;32;20027;-69
2022/08/06 10:30:06;;;;;;;2.90;1.52;;;35.40;42.00;;;;;;10870547;32;20036;-69
2022/08/06 10:36:12;;;;;;;1.67;1.58;;;35.60;42.00;;;;;;10870043;32;20038;-69
2022/08/06 10:42:15;;;;;;;4.93;1.80;;;35.70;41.20;;;;;;10869948;32;20027;-70
2022/08/06 10:48:18;;;;;;;2.53;1.70;;;35.90;40.70;;;;;;10868976;32;20020;-68
2022/08/06 10:54:20;;;;;;;2.78;2.10;;;36.00;40.20;;;;;;10869585;32;20050;-70
2022/08/06 11:00:22;;;;;;;4.43;2.12;;;36.20;40.30;;;;;;10869501;32;20023;-69
2022/08/06 11:06:51;;;;;;;2.10;1.58;;;36.40;39.50;;;;;;10869301;32;20392;-70
2022/08/06 11:13:07;;;;;;;1.60;1.50;;;36.70;39.20;;;;;;10868950;32;20028;-70
2022/08/06 11:19:11;;;;;;;2.30;1.98;;;37.00;38.80;;;;;;10865741;32;20031;-69
2022/08/06 11:25:13;;;;;;;2.08;1.35;;;37.20;38.60;;;;;;10868274;32;20381;-70
2022/08/06 11:31:33;;;;;;;2.72;1.85;;;37.40;37.90;;;;;;10868318;32;20320;-69
2022/08/06 11:37:43;;;;;;;1.98;1.62;;;37.70;37.40;;;;;;10868262;32;20081;-70
2022/08/06 11:44:06;;;;;;;2.42;1.60;;;37.90;36.80;;;;;;10867974;32;20375;-70
2022/08/06 11:50:24;;;;;;;3.42;1.90;;;38.00;36.40;;;;;;10867832;32;20058;-70
2022/08/06 11:56:26;;;;;;;3.37;2.20;;;37.80;36.40;;;;;;10867458;32;20058;-70
2022/08/06 12:02:45;;;;;;;5.50;2.35;;;37.40;37.00;;;;;;10867554;32;20053;-69
2022/08/06 12:09:10;;;;;;;2.50;1.73;;;37.40;37.10;;;;;;10867259;32;20036;-70
2022/08/06 12:15:26;;;;;;;2.67;1.80;;;37.80;36.70;;;;;;10867112;32;20047;-70
2022/08/06 12:21:28;;;;;;;2.70;1.50;;;37.70;36.60;;;;;;10867256;32;20050;-70
2022/08/06 12:27:55;;;;;;;2.35;1.27;;;37.40;37.40;;;;;;10872718;27;20032;-70
2022/08/06 12:34:27;;;;;;;3.40;2.50;;;37.80;37.00;;;;;;10866456;32;20062;-70
2022/08/06 12:40:29;;;;;;;3.03;2.05;;;38.10;36.40;;;;;;10871289;32;20412;-70
2022/08/06 12:46:31;;;;;;;2.15;1.65;;;38.20;36.20;;;;;;10874187;32;20344;-69
2022/08/06 12:52:33;;;;;;;1.85;1.60;;;38.20;36.50;;;;;;10873997;32;20050;-70
2022/08/06 12:58:38;;;;;;;6.93;2.87;;;38.30;36.30;;;;;;10873689;32;20024;-69
2022/08/06 13:04:47;;;;;;;4.40;2.90;;;38.20;36.90;;;;;;10873559;32;20161;-69
2022/08/06 13:10:54;;;;;;;1.95;1.52;;;38.10;37.40;;;;;;10873408;32;20043;-70
2022/08/06 13:16:57;;;;;;;5.90;2.05;;;38.10;37.20;;;;;;10873019;32;20031;-70
2022/08/06 13:22:59;;;;;;;1.87;1.60;;;38.20;36.60;;;;;;10872921;32;20050;-71
2022/08/06 13:29:18;;;;;;;2.37;2.17;;;38.30;36.20;;;;;;10872780;32;20031;-70
2022/08/06 13:35:26;;;;;;;2.78;1.98;;;38.20;36.30;;;;;;10872409;32;20434;-70
2022/08/06 13:41:32;;;;;;;2.30;1.70;;;37.70;36.20;;;;;;10872364;32;20329;-70
2022/08/06 13:47:34;;;;;;;11.10;2.35;;;37.10;37.10;;;;;;10872192;32;20062;-70
2022/08/06 13:53:36;;;;;;;3.45;2.03;;;36.50;40.10;;;;;;10794396;33;20227;-70
2022/08/06 13:59:38;;;;;;;3.22;1.37;;;35.90;40.40;;;;;;10790132;33;20341;-70
2022/08/06 14:05:41;;;;;;;5.70;2.15;;;35.60;40.80;;;;;;10793266;33;20051;-70
2022/08/06 14:11:43;;;;;;;3.60;2.03;;;35.60;40.80;;;;;;10794061;33;20067;-69
2022/08/06 14:17:46;;;;;;;10.20;2.20;;;35.40;40.80;;;;;;10789824;33;20348;-70
2022/08/06 14:23:49;;;;;;;4.10;2.40;;;35.30;41.30;;;;;;10842872;32;20031;-69
2022/08/06 14:29:55;;;;;;;;;;;35.10;43.20;;;;;;10856524;32;20371;-69
2022/08/06 14:35:58;;;;;;;2.25;1.90;;;34.90;43.20;;;;;;10870774;32;19931;-70
2022/08/06 14:48:28;;;;;;;3.05;1.20;;;34.70;44.10;;;;;;10869950;32;20332;-69
2022/08/06 14:54:31;;;;;;;2.30;1.30;;;34.60;44.70;;;;;;10869712;32;20039;-70
2022/08/06 15:00:33;;;;;;;2.97;1.70;;;34.40;44.90;;;;;;10855539;32;20028;-69
2022/08/06 15:06:38;;;;;;;20.95;1.70;;;34.10;45.30;;;;;;10869211;32;20051;-70
2022/08/06 15:12:42;;;;;;;2.17;1.70;;;34.00;45.40;;;;;;10855610;32;20050;-71
2022/08/06 15:18:56;;;;;;;1.58;0.98;;;34.00;45.60;;;;;;10868714;32;20027;-70
2022/08/06 15:25:33;;;;;;;2.85;1.60;;;33.90;47.30;;;;;;10868022;32;20045;-70
2022/08/06 15:31:35;;;;;;;3.12;1.50;;;33.80;47.70;;;;;;10864203;32;20051;-69
2022/08/06 15:37:37;;;;;;;2.55;1.62;;;33.80;49.00;;;;;;10868124;32;20028;-68
2022/08/06 15:43:42;;;;;;;6.57;1.42;;;33.60;49.00;;;;;;10867931;32;20028;-70
2022/08/06 15:49:44;;;;;;;2.03;0.98;;;33.50;48.70;;;;;;10867745;32;20050;-70
2022/08/06 15:55:46;;;;;;;3.78;1.52;;;33.40;49.90;;;;;;10867325;32;20031;-68
2022/08/06 16:02:01;;;;;;;1.92;1.50;;;33.30;50.80;;;;;;10866761;32;20040;-69
2022/08/06 16:08:12;;;;;;;2.83;1.92;;;33.30;50.70;;;;;;10863923;32;20020;-69
2022/08/06 16:14:14;;;;;;;3.80;2.00;;;33.20;51.30;;;;;;10866448;32;20422;-69
2022/08/06 16:20:21;;;;;;;3.92;1.67;;;33.10;52.10;;;;;;10866805;32;20046;-69
2022/08/06 16:26:24;;;;;;;;;;;33.20;53.20;;;;;;10867027;32;20023;-68
2022/08/06 16:32:26;;;;;;;2.15;1.58;;;32.90;53.10;;;;;;10866919;32;20306;-69
2022/08/06 16:38:29;;;;;;;10.13;2.03;;;32.60;54.00;;;;;;10866840;32;20020;-69
2022/08/06 16:44:31;;;;;;;1.60;1.02;;;32.40;53.90;;;;;;10866778;32;20028;-70
2022/08/06 16:50:41;;;;;;;1.83;1.30;;;32.40;54.40;;;;;;10866623;32;20031;-70
2022/08/06 16:56:43;;;;;;;3.05;1.58;;;32.30;54.30;;;;;;10866471;32;20439;-70
2022/08/06 17:02:59;;;;;;;2.58;1.23;;;32.50;54.10;;;;;;10866261;32;20458;-69
2022/08/06 17:09:12;;;;;;;2.00;1.40;;;32.60;53.80;;;;;;10866420;32;20024;-69
2022/08/06 17:15:16;;;;;;;3.87;1.70;;;32.50;53.10;;;;;;10865928;32;20456;-69
2022/08/06 17:21:18;;;;;;;2.75;1.12;;;32.50;53.10;;;;;;10852858;32;20062;-70
2022/08/06 17:27:38;;;;;;;3.00;1.23;;;32.50;53.40;;;;;;10869327;32;20054;-69
2022/08/06 17:33:40;;;;;;;2.53;1.40;;;32.30;53.70;;;;;;10868365;32;20042;-69
2022/08/06 17:39:42;;;;;;;2.17;1.10;;;32.10;55.00;;;;;;10856092;32;20364;-70
2022/08/06 17:45:45;;;;;;;1.87;0.88;;;32.00;55.20;;;;;;10870763;32;20085;-69
2022/08/06 17:51:48;;;;;;;2.30;1.27;;;32.00;55.70;;;;;;10858590;32;20024;-70
2022/08/06 17:57:50;;;;;;;1.05;0.88;;;31.90;55.30;;;;;;10871443;32;20539;-69
2022/08/06 18:03:52;;;;;;;1.23;0.85;;;31.80;55.60;;;;;;10871333;32;20019;-70
2022/08/06 18:16:22;;;;;;;0.43;0.37;;;31.80;55.50;;;;;;10871525;32;20015;-69
2022/08/06 18:22:24;;;;;;;0.75;0.70;;;31.80;55.60;;;;;;10870723;32;20012;-71
2022/08/06 18:28:27;;;;;;;1.45;0.88;;;31.70;55.50;;;;;;10870589;32;20050;-70
2022/08/06 18:34:30;;;;;;;0.60;0.60;;;31.70;55.40;;;;;;10865780;32;20057;-69
2022/08/06 18:40:32;;;;;;;1.85;0.90;;;31.70;55.00;;;;;;10869909;32;20197;-70
2022/08/06 18:46:34;;;;;;;0.55;0.50;;;31.70;54.90;;;;;;10870182;32;20028;-69
2022/08/06 18:52:36;;;;;;;0.47;0.40;;;31.60;54.80;;;;;;10865626;32;20042;-70
2022/08/06 18:58:38;;;;;;;1.17;0.62;;;31.60;54.70;;;;;;10856430;32;20429;-70
2022/08/06 19:04:41;;;;;;;1.05;0.62;;;31.60;54.50;;;;;;10869450;32;20028;-68
2022/08/06 19:10:43;;;;;;;0.43;0.43;;;31.40;54.90;;;;;;10868359;32;20031;-70
2022/08/06 19:16:46;;;;;;;1.02;0.70;;;31.30;55.00;;;;;;10867704;32;20081;-70
2022/08/06 19:22:50;;;;;;;0.93;0.50;;;31.30;55.20;;;;;;10868908;32;20027;-70
2022/08/06 19:28:53;;;;;;;0.47;0.45;;;31.30;55.40;;;;;;10826546;32;20031;-69
2022/08/06 19:34:56;;;;;;;1.60;0.80;;;31.30;55.30;;;;;;10842630;32;20059;-70
2022/08/06 19:40:59;;;;;;;0.95;0.82;;;31.20;53.40;;;;;;10867917;32;20023;-71
2022/08/06 19:47:14;;;;;;;1.30;0.82;;;30.90;52.60;;;;;;10865770;32;20049;-70
2022/08/06 19:53:17;;;;;;;4.97;1.50;;;30.90;53.10;;;;;;10867100;32;20031;-73
2022/08/06 19:59:19;;;;;;;2.25;1.48;;;30.90;53.10;;;;;;10866925;32;20416;-68
2022/08/06 20:05:23;;;;;;;2.00;1.25;;;30.70;52.20;;;;;;10868029;32;20042;-69
2022/08/06 20:11:26;;;;;;;1.98;1.30;;;30.00;53.40;;;;;;10863818;32;20054;-69
2022/08/06 20:17:28;;;;;;;2.33;1.00;;;29.60;54.50;;;;;;10863127;32;20039;-69
2022/08/06 20:23:52;;;;;;;4.45;1.73;;;29.40;55.50;;;;;;10865343;32;20031;-69
2022/08/06 20:29:54;;;;;;;4.57;2.08;;;29.10;58.80;;;;;;10844926;27;20032;-70
2022/08/06 20:35:57;;;;;;;1.35;1.05;;;28.50;62.00;;;;;;10861837;32;20051;-69
2022/08/06 20:41:59;;;;;;;2.65;0.93;;;28.40;62.60;;;;;;10866056;32;20039;-70
2022/08/06 20:48:01;;;;;;;1.60;1.05;;;28.60;61.90;;;;;;10863599;32;20073;-71
2022/08/06 20:54:03;;;;;;;2.58;1.10;;;28.80;61.60;;;;;;10862738;32;20023;-70
2022/08/06 21:00:19;;;;;;;2.12;1.70;;;28.70;61.60;;;;;;10865024;32;20422;-70
2022/08/06 21:06:22;;;;;;;2.67;1.33;;;28.40;62.30;;;;;;10869498;32;20027;-72
2022/08/06 21:12:26;;;;;;;2.35;1.05;;;28.00;63.30;;;;;;10869359;32;20023;-70
2022/08/06 21:18:28;;;;;;;2.12;1.05;;;27.80;64.10;;;;;;10869132;32;20028;-70
2022/08/06 21:24:31;;;;;;;0.82;0.60;;;27.90;63.50;;;;;;10833912;32;20039;-70
2022/08/06 21:30:37;;;;;;;2.67;1.35;;;27.90;63.00;;;;;;10831229;32;20383;-70
2022/08/06 21:36:39;;;;;;;4.82;0.70;;;28.10;62.70;;;;;;10831881;32;20447;-70
2022/08/06 21:42:42;;;;;;;2.92;0.88;;;28.30;62.30;;;;;;10831122;32;20028;-71
2022/08/06 21:48:44;;;;;;;1.45;0.85;;;28.40;62.00;;;;;;10835009;32;20028;-71
2022/08/06 21:54:46;;;;;;;0.65;0.65;;;28.50;61.60;;;;;;10833127;32;20082;-71
2022/08/06 22:00:49;;;;;;;2.28;1.10;;;28.40;61.30;;;;;;10830857;32;20058;-71
2022/08/06 22:06:52;;;;;;;1.50;0.70;;;28.20;61.40;;;;;;10830704;32;20306;-71
2022/08/06 22:13:01;;;;;;;1.85;1.12;;;28.30;61.50;;;;;;10832787;32;20019;-70
2022/08/06 22:19:03;;;;;;;0.50;0.50;;;28.40;61.20;;;;;;10830974;32;20028;-71
2022/08/06 22:25:06;;;;;;;0.50;0.50;;;28.30;61.10;;;;;;10829834;33;20035;-71
2022/08/06 22:31:09;;;;;;;0.82;0.70;;;28.30;61.00;;;;;;10830522;32;20020;-71
2022/08/06 22:37:11;;;;;;;1.25;1.00;;;28.40;60.70;;;;;;10829299;33;20050;-71
2022/08/06 22:43:15;;;;;;;1.23;1.00;;;28.30;60.60;;;;;;10831077;32;20024;-70
2022/08/06 22:49:17;;;;;;;2.22;1.20;;;28.40;60.70;;;;;;10830137;32;20078;-70
2022/08/06 22:55:19;;;;;;;1.15;0.88;;;28.50;60.80;;;;;;10832879;32;20055;-71
2022/08/06 23:01:21;;;;;;;0.70;0.60;;;28.50;60.60;;;;;;10831622;32;20418;-71
2022/08/06 23:07:23;;;;;;;1.08;0.85;;;28.50;60.40;;;;;;10831124;32;20024;-71
2022/08/06 23:13:25;;;;;;;0.70;0.52;;;28.50;60.40;;;;;;10828008;32;20054;-70
2022/08/06 23:19:28;;;;;;;0.95;0.57;;;28.30;60.50;;;;;;10831875;32;20447;-70
2022/08/06 23:25:31;;;;;;;0.90;0.55;;;28.20;60.60;;;;;;10829225;32;20023;-70
2022/08/06 23:31:34;;;;;;;1.75;1.10;;;28.30;60.40;;;;;;10828770;32;20039;-70
2022/08/06 23:37:36;;;;;;;1.83;1.00;;;28.10;60.50;;;;;;10831138;32;20047;-70
2022/08/06 23:43:38;;;;;;;1.35;0.75;;;28.20;60.40;;;;;;10828717;32;20024;-70
2022/08/06 23:49:40;;;;;;;1.50;0.88;;;28.30;60.60;;;;;;10827845;32;20042;-70
2022/08/06 23:55:58;;;;;;;4.25;1.10;;;28.30;60.80;;;;;;10827421;32;20344;-70
